Time;durP1;ratioP1;P1;durP2;ratioP2;P2;SDS_P1;SDS_P2;PMS_P1;PMS_P2;Temp;Humidity;BMP_temperature;BMP_pressure;BME280_temperature;BME280_humidity;BME280_pressure;Samples;Min_cycle;Max_cycle;Signal;HPM_P1;HPM_P2
2022/10/01 00:01:17;;;;;;;6.03;4.43;;;;;;;15.44;57.01;100321.28;4971318;28;122867;-73
2022/10/01 00:03:46;;;;;;;4.95;4.45;;;;;;;15.43;57.07;100319.59;4970090;28;123323;-72
2022/10/01 00:06:18;;;;;;;5.32;4.63;;;;;;;15.43;57.14;100308.94;4973836;28;114259;-72
2022/10/01 00:08:47;;;;;;;7.05;4.75;;;;;;;15.43;57.21;100314.25;4973791;28;115150;-72
2022/10/01 00:11:18;;;;;;;6.88;5.38;;;;;;;15.41;57.54;100305.50;4957249;28;124231;-71
2022/10/01 00:13:46;;;;;;;6.60;4.90;;;;;;;15.40;57.40;100282.47;4970763;28;124099;-71
2022/10/01 00:16:16;;;;;;;6.25;5.13;;;;;;;15.38;57.67;100286.06;4970312;28;114311;-72
2022/10/01 00:18:45;;;;;;;7.60;5.40;;;;;;;15.37;57.67;100276.38;4949330;28;113890;-72
2022/10/01 00:21:18;;;;;;;6.70;4.82;;;;;;;15.35;57.82;100275.66;4969504;28;124452;-72
2022/10/01 00:23:45;;;;;;;6.75;5.05;;;;;;;15.34;57.87;100263.25;4967520;28;123699;-72
2022/10/01 00:26:17;;;;;;;6.50;5.05;;;;;;;15.33;57.90;100256.25;4969098;28;115124;-73
2022/10/01 00:28:46;;;;;;;8.43;5.03;;;;;;;15.34;58.08;100244.59;4970584;28;113881;-73
2022/10/01 00:31:14;;;;;;;9.75;5.18;;;;;;;15.33;58.15;100250.91;4969010;28;124080;-72
2022/10/01 00:33:42;;;;;;;8.45;5.03;;;;;;;15.32;58.03;100243.84;4968715;28;124542;-72
2022/10/01 00:36:10;;;;;;;7.93;4.88;;;;;;;15.31;58.14;100251.97;4967508;28;115960;-72
2022/10/01 00:38:39;;;;;;;7.05;5.10;;;;;;;15.29;58.22;100244.06;4952846;28;113776;-71
2022/10/01 00:41:07;;;;;;;5.43;4.75;;;;;;;15.29;58.34;100246.72;4968605;28;124141;-72
2022/10/01 00:43:38;;;;;;;6.80;5.15;;;;;;;15.28;58.52;100237.03;4951867;28;122992;-71
2022/10/01 00:46:13;;;;;;;6.47;5.40;;;;;;;15.27;58.53;100238.00;4946581;28;114340;-71
2022/10/01 00:48:57;;;;;;;5.80;5.00;;;;;;;15.26;58.45;100228.31;4969223;28;113870;-71
2022/10/01 00:51:28;;;;;;;7.47;5.30;;;;;;;15.25;58.60;100226.59;4969173;28;123881;-72
2022/10/01 00:54:01;;;;;;;7.15;5.28;;;;;;;15.26;58.45;100216.78;4951740;28;123384;-72
2022/10/01 00:56:30;;;;;;;6.60;4.82;;;;;;;15.27;58.64;100223.81;4967123;28;115525;-72
2022/10/01 00:58:57;;;;;;;8.18;5.18;;;;;;;15.27;58.77;100235.31;4952036;28;114699;-73
2022/10/01 01:01:24;;;;;;;6.90;5.15;;;;;;;15.27;58.84;100234.50;4949418;28;124659;-72
2022/10/01 01:03:51;;;;;;;6.50;5.05;;;;;;;15.26;58.81;100228.31;4969447;28;124298;-72
2022/10/01 01:06:19;;;;;;;7.72;5.28;;;;;;;15.27;58.84;100230.00;4967314;28;114214;-72
2022/10/01 01:08:53;;;;;;;6.53;5.50;;;;;;;15.26;59.00;100228.31;4966366;28;114527;-72
2022/10/01 01:11:44;;;;;;;7.03;4.93;;;;;;;15.25;58.92;100221.25;4952193;28;123221;-72
2022/10/01 01:14:22;;;;;;;7.97;5.22;;;;;;;15.24;59.15;100218.69;4969249;28;123955;-72
2022/10/01 01:16:57;;;;;;;7.40;4.65;;;;;;;15.22;59.08;100216.16;4970342;28;114554;-73
2022/10/01 01:19:37;;;;;;;7.50;5.13;;;;;;;15.21;59.08;100209.13;4970368;28;112999;-73
2022/10/01 01:22:06;;;;;;;7.90;5.40;;;;;;;15.18;59.24;100190.66;4945924;28;123453;-75
2022/10/01 01:24:54;;;;;;;6.35;5.07;;;;;;;15.18;59.33;100198.66;4969705;28;123689;-73
2022/10/01 01:27:49;;;;;;;8.10;5.55;;;;;;;15.14;59.35;100170.53;4966477;28;114069;-72
2022/10/01 01:30:17;;;;;;;6.70;5.28;;;;;;;15.14;59.44;100166.06;4948364;28;114759;-73
2022/10/01 01:33:01;;;;;;;14.27;4.88;;;;;;;15.14;59.58;100154.53;4949528;28;123887;-72
2022/10/01 01:35:35;;;;;;;5.72;4.78;;;;;;;15.12;59.53;100143.13;4970967;28;96940;-73
2022/10/01 01:38:13;;;;;;;5.43;4.88;;;;;;;15.11;59.64;100106.75;4966884;28;114157;-72
2022/10/01 01:40:44;;;;;;;6.50;4.80;;;;;;;15.10;59.72;100067.72;4952301;28;113454;-72
2022/10/01 01:43:19;;;;;;;7.25;4.50;;;;;;;15.09;59.74;100058.03;4969007;28;124586;-72
2022/10/01 01:45:48;;;;;;;;;;;;;;;15.05;59.09;100080.53;4968406;28;124760;-72
2022/10/01 01:48:15;;;;;;;7.18;4.20;;;;;;;15.07;59.50;100081.25;4969722;28;115137;-73
2022/10/01 01:50:59;;;;;;;6.82;4.75;;;;;;;15.06;59.77;100095.59;4968033;28;115384;-72
2022/10/01 01:53:29;;;;;;;5.75;4.22;;;;;;;15.05;60.01;100086.75;4966870;28;124831;-73
2022/10/01 01:55:56;;;;;;;4.13;3.60;;;;;;;15.04;60.03;100110.84;4950657;28;123363;-73
2022/10/01 01:58:25;;;;;;;7.03;4.40;;;;;;;15.04;60.42;100110.84;4950337;28;113211;-73
2022/10/01 02:00:52;;;;;;;6.25;3.90;;;;;;;15.05;60.40;100101.88;4969609;28;114352;-73
2022/10/01 02:03:23;;;;;;;7.22;4.03;;;;;;;15.06;60.41;100103.59;4968554;28;123974;-73
2022/10/01 02:06:20;;;;;;;4.90;3.80;;;;;;;15.06;60.55;100103.59;4966871;28;123822;-73
2022/10/01 02:08:56;;;;;;;5.32;3.90;;;;;;;15.06;60.56;100092.91;4968616;28;114658;-73
2022/10/01 02:11:32;;;;;;;4.75;3.80;;;;;;;15.07;60.41;100073.25;4949883;28;112756;-73
2022/10/01 02:14:27;;;;;;;4.10;3.47;;;;;;;15.06;60.33;100071.59;4948328;28;123687;-73
2022/10/01 02:17:04;;;;;;;3.97;3.28;;;;;;;15.06;60.63;100071.59;4966253;28;123749;-72
2022/10/01 02:19:43;;;;;;;3.78;2.97;;;;;;;15.05;60.73;100060.06;4966842;28;114060;-74
2022/10/01 02:22:15;;;;;;;4.38;3.40;;;;;;;15.05;60.87;100075.19;4967743;28;114215;-73
2022/10/01 02:24:51;;;;;;;5.18;3.35;;;;;;;15.05;60.99;100054.75;4948126;28;123850;-73
2022/10/01 02:27:22;;;;;;;4.68;3.60;;;;;;;15.06;60.96;100047.56;4966757;28;124139;-72
2022/10/01 02:29:49;;;;;;;3.63;3.15;;;;;;;15.06;60.83;100051.09;4951656;28;113732;-73
2022/10/01 02:32:18;;;;;;;5.93;3.33;;;;;;;15.06;61.06;100050.25;4951807;28;113687;-74
2022/10/01 02:34:48;;;;;;;4.13;3.15;;;;;;;15.05;60.99;100048.53;4948305;28;123093;-73
2022/10/01 02:37:20;;;;;;;5.47;3.22;;;;;;;15.05;61.06;100043.19;4965833;28;123721;-72
2022/10/01 02:39:49;;;;;;;4.15;2.85;;;;;;;15.07;61.22;100035.94;4949765;28;114236;-73
2022/10/01 02:42:20;;;;;;;4.47;2.75;;;;;;;15.05;61.14;100032.53;4968436;28;114659;-73
2022/10/01 02:44:50;;;;;;;3.58;2.67;;;;;;;15.04;61.16;100020.19;4965210;28;124689;-73
2022/10/01 02:47:25;;;;;;;3.22;2.30;;;;;;;15.05;61.15;100027.19;4967166;28;124279;-73
2022/10/01 02:49:53;;;;;;;4.28;2.50;;;;;;;15.04;61.06;100020.19;4948154;28;115011;-73
2022/10/01 02:52:35;;;;;;;3.50;2.30;;;;;;;15.03;61.44;100018.47;4965933;28;114150;-73
2022/10/01 02:55:17;;;;;;;3.03;2.28;;;;;;;15.05;61.36;100016.53;4963814;28;124044;-73
2022/10/01 02:57:44;;;;;;;4.38;2.47;;;;;;;15.06;61.48;100028.91;4964557;28;124539;-73
2022/10/01 03:00:14;;;;;;;4.40;2.47;;;;;;;15.06;61.34;100012.91;4967233;28;114220;-73
2022/10/01 03:02:41;;;;;;;3.13;2.25;;;;;;;15.06;61.55;100007.56;4968845;28;116237;-73
2022/10/01 03:05:09;;;;;;;2.58;2.20;;;;;;;15.06;61.64;100002.25;4966863;28;123811;-74
2022/10/01 03:07:36;;;;;;;3.22;2.10;;;;;;;15.06;61.76;100002.25;4967361;28;124941;-73
2022/10/01 03:10:04;;;;;;;2.78;2.03;;;;;;;15.07;61.63;100009.25;4948679;28;114781;-73
2022/10/01 03:12:32;;;;;;;2.83;2.00;;;;;;;15.08;61.77;100005.63;4967503;28;113541;-73
2022/10/01 03:14:59;;;;;;;2.97;1.90;;;;;;;15.09;61.76;100007.34;4967637;28;123882;-73
2022/10/01 03:17:26;;;;;;;2.58;1.70;;;;;;;15.11;61.80;100021.41;4968788;28;124427;-73
2022/10/01 03:19:53;;;;;;;4.35;1.70;;;;;;;15.11;61.97;100010.75;4951023;28;113904;-73
2022/10/01 03:22:21;;;;;;;2.38;1.60;;;;;;;15.12;62.05;100002.59;4951630;28;114202;-73
2022/10/01 03:24:50;;;;;;;2.47;1.75;;;;;;;15.13;62.04;100019.47;4949851;28;124287;-73
2022/10/01 03:27:17;;;;;;;2.20;1.65;;;;;;;15.14;62.04;99995.34;4933524;28;124278;-73
2022/10/01 03:29:45;;;;;;;2.80;1.50;;;;;;;15.14;61.78;99999.81;4948879;28;114773;-72
2022/10/01 03:32:13;;;;;;;1.70;1.42;;;;;;;15.16;61.88;100003.22;4968541;28;114887;-73
2022/10/01 03:34:40;;;;;;;2.22;1.50;;;;;;;15.18;62.18;99987.94;4967670;28;123736;-72
2022/10/01 03:37:07;;;;;;;1.73;1.35;;;;;;;15.19;62.06;99986.97;4968380;28;124591;-73
2022/10/01 03:39:34;;;;;;;2.00;1.55;;;;;;;15.21;62.20;99998.38;4968755;28;114009;-73
2022/10/01 03:42:04;;;;;;;4.00;1.88;;;;;;;15.22;62.32;99997.41;4968413;28;113820;-73
2022/10/01 03:44:32;;;;;;;2.00;1.42;;;;;;;15.22;62.32;99992.09;4968288;28;124122;-73
2022/10/01 03:46:59;;;;;;;1.70;1.23;;;;;;;15.24;62.23;99984.81;4968033;28;123907;-73
2022/10/01 03:49:26;;;;;;;1.67;1.42;;;;;;;15.26;62.24;99988.22;4968690;28;114420;-72
2022/10/01 03:51:53;;;;;;;1.83;1.27;;;;;;;15.28;62.21;99991.59;4971303;28;113779;-73
2022/10/01 03:54:21;;;;;;;1.60;1.20;;;;;;;15.30;62.21;99992.31;4971177;28;124558;-73
2022/10/01 03:56:48;;;;;;;1.65;1.35;;;;;;;15.31;62.42;100002.03;4971245;28;123883;-74
2022/10/01 03:59:15;;;;;;;2.33;1.27;;;;;;;15.30;62.33;100000.31;4971797;28;114772;-73
2022/10/01 04:01:42;;;;;;;2.00;1.42;;;;;;;15.32;62.40;99998.38;4971368;28;114165;-73
2022/10/01 04:04:09;;;;;;;1.70;1.23;;;;;;;15.34;62.37;99996.44;4971575;28;125061;-73
2022/10/01 04:06:36;;;;;;;1.60;1.30;;;;;;;15.36;62.45;99994.50;4967727;28;124302;-73
2022/10/01 04:09:03;;;;;;;1.77;1.20;;;;;;;15.36;62.45;99994.50;4968725;28;114275;-73
2022/10/01 04:11:30;;;;;;;1.33;1.10;;;;;;;15.37;62.41;99998.88;4972389;28;114245;-74
2022/10/01 04:13:58;;;;;;;2.05;1.23;;;;;;;15.40;62.33;99994.28;4971040;28;124556;-73
2022/10/01 04:16:25;;;;;;;2.72;1.40;;;;;;;15.41;62.41;100004.84;4953015;28;123946;-73
2022/10/01 04:18:53;;;;;;;3.35;1.20;;;;;;;15.44;62.46;100011.72;4954101;28;115482;-73
2022/10/01 04:21:20;;;;;;;1.95;1.25;;;;;;;15.45;62.52;100008.94;4971234;28;114808;-73
2022/10/01 04:23:48;;;;;;;1.42;1.10;;;;;;;15.47;62.51;100000.81;4971336;28;123951;-74
2022/10/01 04:26:17;;;;;;;1.70;1.23;;;;;;;15.48;62.32;100007.84;4951152;28;123820;-73
2022/10/01 04:28:45;;;;;;;1.27;1.10;;;;;;;15.50;62.33;100005.91;4967561;28;114669;-73
2022/10/01 04:31:25;;;;;;;1.42;1.10;;;;;;;15.50;62.42;100006.78;4954061;28;114170;-73
2022/10/01 04:33:55;;;;;;;2.67;1.20;;;;;;;15.51;62.49;100002.28;4968139;28;124615;-73
2022/10/01 04:36:23;;;;;;;2.40;1.00;;;;;;;15.53;62.55;99997.66;4966504;28;123569;-73
2022/10/01 04:38:52;;;;;;;4.57;1.10;;;;;;;15.56;62.55;100000.09;4970667;28;114877;-73
2022/10/01 04:41:25;;;;;;;2.50;1.00;;;;;;;15.57;62.48;100001.78;4957157;28;113379;-73
2022/10/01 04:43:52;;;;;;;1.50;1.30;;;;;;;15.60;62.49;100006.06;4969963;28;123621;-73
2022/10/01 04:46:19;;;;;;;1.85;1.00;;;;;;;15.63;62.51;100022.63;4970055;28;124559;-73
2022/10/01 04:48:48;;;;;;;1.65;1.20;;;;;;;15.66;62.63;100021.56;4952640;28;113349;-73
2022/10/01 04:51:16;;;;;;;2.08;1.10;;;;;;;15.67;62.46;100024.13;4970610;28;113713;-73
2022/10/01 04:53:43;;;;;;;2.13;1.08;;;;;;;15.69;62.70;100032.84;4970534;28;123440;-73
2022/10/01 04:56:10;;;;;;;1.13;0.90;;;;;;;15.72;62.62;100029.91;4952311;28;123242;-73
2022/10/01 04:58:37;;;;;;;1.30;1.00;;;;;;;15.74;62.55;100036.00;4952231;28;114276;-72
2022/10/01 05:01:04;;;;;;;1.10;0.95;;;;;;;15.76;62.54;100033.22;4934024;28;112258;-73
2022/10/01 05:03:31;;;;;;;1.30;0.90;;;;;;;15.79;62.58;100037.50;4969814;28;123911;-72
2022/10/01 05:05:58;;;;;;;1.42;0.90;;;;;;;15.80;62.72;100044.50;4969576;28;124410;-75
2022/10/01 05:08:26;;;;;;;1.48;1.10;;;;;;;15.83;62.70;100054.97;4970068;28;116217;-73
2022/10/01 05:10:53;;;;;;;1.45;1.00;;;;;;;15.84;62.72;100045.97;4969686;28;114712;-73
2022/10/01 05:13:20;;;;;;;1.30;0.85;;;;;;;15.84;62.79;100046.84;4970391;28;124765;-73
2022/10/01 05:15:49;;;;;;;0.90;0.77;;;;;;;15.87;62.77;100056.41;4969988;28;123592;-73
2022/10/01 05:18:16;;;;;;;1.15;0.90;;;;;;;15.88;62.72;100066.09;4970726;28;114871;-73
2022/10/01 05:20:43;;;;;;;1.65;0.93;;;;;;;15.89;62.90;100066.00;4970525;28;114064;-73
2022/10/01 05:23:10;;;;;;;3.92;0.98;;;;;;;15.92;62.79;100059.56;4967617;28;123876;-73
2022/10/01 05:25:37;;;;;;;1.75;1.20;;;;;;;15.94;62.98;100068.31;4971608;28;123611;-73
2022/10/01 05:28:04;;;;;;;3.47;1.00;;;;;;;15.97;62.90;100078.72;4972947;28;113979;-73
2022/10/01 05:30:32;;;;;;;2.25;1.10;;;;;;;15.97;62.85;100073.38;4975672;28;113680;-73
2022/10/01 05:33:02;;;;;;;2.17;1.33;;;;;;;16.01;63.02;100068.66;4960177;28;122723;-73
2022/10/01 05:35:30;;;;;;;1.20;0.90;;;;;;;16.02;63.05;100071.19;4982133;28;125077;-72
2022/10/01 05:37:59;;;;;;;2.45;1.05;;;;;;;16.03;62.98;100072.91;4981673;28;114693;-74
2022/10/01 05:40:27;;;;;;;1.20;1.02;;;;;;;16.05;62.96;100081.66;4979678;28;113935;-72
2022/10/01 05:42:55;;;;;;;2.13;1.17;;;;;;;16.06;62.99;100083.34;4963059;28;124011;-74
2022/10/01 05:45:23;;;;;;;1.88;1.20;;;;;;;16.07;63.05;100085.03;4977501;28;124432;-73
2022/10/01 05:48:02;;;;;;;3.10;1.35;;;;;;;16.08;63.01;100092.06;4968912;28;114948;-73
2022/10/01 05:50:32;;;;;;;2.00;1.23;;;;;;;16.09;63.16;100088.44;4954656;28;113751;-74
2022/10/01 05:53:00;;;;;;;1.60;1.30;;;;;;;16.12;63.31;100088.22;4973393;28;123893;-74
2022/10/01 05:55:33;;;;;;;3.13;1.42;;;;;;;16.14;63.15;100102.28;4958159;28;124315;-73
2022/10/01 05:58:06;;;;;;;2.17;1.50;;;;;;;16.17;63.17;100095.00;4972792;28;115704;-73
2022/10/01 06:00:34;;;;;;;2.40;1.50;;;;;;;16.20;63.06;100100.06;4955997;28;114820;-73
2022/10/01 06:03:02;;;;;;;3.13;1.40;;;;;;;16.21;63.05;100101.78;4971358;28;123755;-73
2022/10/01 06:05:31;;;;;;;2.40;1.50;;;;;;;16.23;63.24;100113.19;4965489;28;124489;-73
2022/10/01 06:07:59;;;;;;;2.17;1.50;;;;;;;16.24;63.21;100128.25;4970458;28;114103;-72
2022/10/01 06:10:29;;;;;;;3.13;1.63;;;;;;;16.26;63.23;100118.31;4969525;28;114279;-73
2022/10/01 06:13:01;;;;;;;2.28;1.60;;;;;;;16.28;63.46;100119.03;4968180;28;123823;-73
2022/10/01 06:15:28;;;;;;;2.13;1.92;;;;;;;16.30;63.42;100122.41;4966928;28;124036;-73
2022/10/01 06:17:55;;;;;;;4.43;2.00;;;;;;;16.33;63.37;100116.81;4969544;28;114316;-73
2022/10/01 06:20:22;;;;;;;3.33;2.15;;;;;;;16.36;63.40;100124.59;4950386;28;113592;-74
2022/10/01 06:22:54;;;;;;;3.85;2.22;;;;;;;16.39;63.38;100124.34;4950087;28;123304;-73
2022/10/01 06:25:21;;;;;;;3.00;2.30;;;;;;;16.39;63.36;100121.69;4949994;28;123031;-73
2022/10/01 06:27:56;;;;;;;3.13;2.42;;;;;;;16.41;63.45;100125.06;4966097;28;114507;-73
2022/10/01 06:30:30;;;;;;;3.95;2.50;;;;;;;16.44;63.57;100130.16;4966029;28;113982;-73
2022/10/01 06:33:02;;;;;;;3.15;2.30;;;;;;;16.46;63.58;100128.22;4967318;28;123944;-73
2022/10/01 06:35:34;;;;;;;3.55;2.83;;;;;;;16.50;63.43;100135.03;4947988;28;123259;-75
2022/10/01 06:38:01;;;;;;;3.83;2.60;;;;;;;16.51;63.49;100131.34;4956644;28;113620;-73
2022/10/01 06:40:29;;;;;;;3.03;2.63;;;;;;;16.57;63.53;100134.50;4969711;28;114550;-73
2022/10/01 06:42:57;;;;;;;4.00;2.72;;;;;;;16.61;63.60;100135.97;4971388;28;124565;-73
2022/10/01 06:45:26;;;;;;;5.85;3.05;;;;;;;16.65;63.64;100143.63;4952517;28;124396;-73
2022/10/01 06:47:58;;;;;;;3.63;3.05;;;;;;;16.69;63.57;100144.22;4934897;28;114875;-73
2022/10/01 06:50:25;;;;;;;6.25;3.17;;;;;;;16.72;63.60;100138.59;4967363;28;114015;-74
2022/10/01 06:52:52;;;;;;;6.13;3.35;;;;;;;16.75;63.49;100133.00;4949939;28;125689;-73
2022/10/01 06:55:25;;;;;;;3.88;3.47;;;;;;;16.78;63.53;100137.25;4964377;28;123843;-73
2022/10/01 06:58:11;;;;;;;4.05;3.42;;;;;;;16.81;63.60;100137.84;4965821;28;114744;-73
2022/10/01 07:00:38;;;;;;;5.70;3.63;;;;;;;16.88;63.64;100138.22;4968143;28;114933;-73
2022/10/01 07:03:09;;;;;;;5.53;3.70;;;;;;;16.92;63.69;100135.16;4967453;28;122954;-73
2022/10/01 07:05:37;;;;;;;4.68;3.67;;;;;;;17.01;63.67;100138.03;4967162;28;123603;-74
2022/10/01 07:08:05;;;;;;;5.40;3.65;;;;;;;17.09;63.83;100151.66;4968077;28;114002;-73
2022/10/01 07:10:33;;;;;;;6.20;4.20;;;;;;;17.14;63.81;100149.44;4966035;28;114425;-73
2022/10/01 07:13:12;;;;;;;4.50;4.00;;;;;;;17.18;63.49;100155.34;4948635;28;123648;-74
2022/10/01 07:15:39;;;;;;;8.88;4.40;;;;;;;17.20;63.51;100159.63;4964263;28;124230;-73
2022/10/01 07:18:08;;;;;;;6.00;4.32;;;;;;;17.22;63.43;100163.00;4968332;28;115422;-73
2022/10/01 07:20:38;;;;;;;8.07;4.22;;;;;;;17.26;63.50;100164.44;4949254;28;114133;-73
2022/10/01 07:23:09;;;;;;;7.00;4.47;;;;;;;17.31;63.55;100167.59;4966367;28;124328;-73
2022/10/01 07:25:37;;;;;;;6.00;4.45;;;;;;;17.36;63.42;100163.69;4965688;28;124585;-73
2022/10/01 07:28:06;;;;;;;4.53;3.80;;;;;;;17.41;63.36;100166.81;4951744;28;113517;-73
2022/10/01 07:30:34;;;;;;;5.57;4.20;;;;;;;17.44;63.55;100171.91;4972194;28;113888;-73
2022/10/01 07:33:01;;;;;;;5.43;4.25;;;;;;;17.50;63.40;100174.06;4970005;28;124675;-74
2022/10/01 07:35:28;;;;;;;5.70;4.63;;;;;;;17.54;63.56;100178.19;4971352;28;124726;-73
2022/10/01 07:37:55;;;;;;;5.03;4.35;;;;;;;17.60;63.37;100177.66;4953215;28;115052;-73
2022/10/01 07:40:22;;;;;;;5.75;4.45;;;;;;;17.68;63.61;100185.88;4968689;28;114921;-73
2022/10/01 07:42:55;;;;;;;7.53;4.82;;;;;;;17.75;63.50;100190.72;4953136;28;124701;-73
2022/10/01 07:45:23;;;;;;;10.02;5.80;;;;;;;17.84;63.65;100189.94;4953212;28;122871;-73
2022/10/01 07:47:54;;;;;;;9.63;5.78;;;;;;;17.91;63.41;100191.13;4971168;28;114452;-73
2022/10/01 07:50:21;;;;;;;7.60;6.07;;;;;;;18.00;63.22;100192.16;4971403;28;113866;-73
2022/10/01 07:52:51;;;;;;;8.70;6.28;;;;;;;18.06;63.39;100195.16;4970547;28;123771;-74
2022/10/01 07:55:19;;;;;;;12.77;6.60;;;;;;;18.13;63.23;100191.94;4952467;28;124224;-73
2022/10/01 07:57:54;;;;;;;8.10;6.63;;;;;;;18.17;63.21;100202.25;4969882;28;115414;-73
2022/10/01 08:00:23;;;;;;;10.50;7.00;;;;;;;18.20;63.00;100212.72;4970094;28;114232;-73
2022/10/01 08:02:52;;;;;;;10.55;7.30;;;;;;;18.22;62.92;100215.28;4969765;28;124769;-73
2022/10/01 08:05:22;;;;;;;7.65;6.45;;;;;;;18.24;62.81;100218.66;4970295;28;124102;-73
2022/10/01 08:07:49;;;;;;;10.43;6.72;;;;;;;18.26;62.60;100216.69;4967987;28;114124;-73
2022/10/01 08:10:18;;;;;;;7.07;6.38;;;;;;;18.27;62.31;100229.09;4970745;28;114813;-73
2022/10/01 08:12:45;;;;;;;8.07;6.60;;;;;;;18.25;62.37;100231.94;4970068;28;123282;-73
2022/10/01 08:15:15;;;;;;;9.60;6.72;;;;;;;18.24;62.54;100232.06;4969755;28;123695;-73
2022/10/01 08:17:42;;;;;;;10.93;7.22;;;;;;;18.23;62.57;100233.03;4970176;28;114332;-73
2022/10/01 08:20:12;;;;;;;8.30;7.07;;;;;;;18.22;62.40;100242.06;4971545;28;113109;-74
2022/10/01 08:22:39;;;;;;;9.32;7.28;;;;;;;18.21;62.41;100235.00;4968885;28;124562;-73
2022/10/01 08:25:08;;;;;;;9.65;7.55;;;;;;;18.21;62.63;100240.38;4966953;28;124271;-73
2022/10/01 08:27:35;;;;;;;8.10;7.22;;;;;;;18.21;62.82;100237.69;4969032;28;115031;-73
2022/10/01 08:30:03;;;;;;;10.90;7.28;;;;;;;18.23;62.87;100243.75;4969536;28;115211;-73
2022/10/01 08:32:31;;;;;;;11.07;7.07;;;;;;;18.28;62.99;100249.56;4971245;28;123678;-73
2022/10/01 08:34:58;;;;;;;7.40;6.45;;;;;;;18.31;62.98;100252.00;4949018;28;124046;-73
2022/10/01 08:37:28;;;;;;;7.63;5.95;;;;;;;18.35;63.19;100252.59;4968107;28;114263;-73
2022/10/01 08:39:55;;;;;;;8.45;5.72;;;;;;;18.37;63.09;100256.81;4954864;28;113054;-73
2022/10/01 08:42:28;;;;;;;7.88;5.20;;;;;;;18.40;62.92;100267.28;4966647;28;124071;-73
2022/10/01 08:45:00;;;;;;;7.05;5.55;;;;;;;18.40;62.89;100272.66;4970839;28;124084;-73
2022/10/01 08:47:32;;;;;;;6.60;5.18;;;;;;;18.39;62.75;100270.94;4971497;28;114304;-73
2022/10/01 08:50:07;;;;;;;5.90;5.30;;;;;;;18.38;62.75;100279.94;4969877;28;114481;-73
2022/10/01 08:52:49;;;;;;;7.93;6.07;;;;;;;18.38;62.68;100279.94;4960813;28;123986;-73
2022/10/01 08:55:23;;;;;;;8.40;6.63;;;;;;;18.40;62.61;100272.66;4964420;28;124255;-72
2022/10/01 08:57:59;;;;;;;7.85;6.78;;;;;;;18.38;62.60;100271.06;4969103;28;115047;-73
2022/10/01 09:00:29;;;;;;;9.05;7.57;;;;;;;18.36;62.65;100271.19;4971018;28;113987;-73
2022/10/01 09:03:02;;;;;;;9.35;7.90;;;;;;;18.35;62.55;100272.19;4962013;28;124249;-73
2022/10/01 09:05:50;;;;;;;9.65;8.38;;;;;;;18.33;62.65;100274.16;4954277;28;124857;-73
2022/10/01 09:08:55;;;;;;;10.18;8.60;;;;;;;18.34;62.78;100266.97;4969323;28;114355;-73
2022/10/01 09:11:43;;;;;;;10.87;9.73;;;;;;;18.36;62.92;100286.44;4853054;29;114764;-73
2022/10/01 09:14:29;;;;;;;12.07;10.55;;;;;;;18.37;63.32;100285.47;4965164;28;124517;-73
2022/10/01 09:17:18;;;;;;;13.85;11.50;;;;;;;18.37;63.03;100283.63;4970989;28;123874;-73
2022/10/01 09:19:57;;;;;;;12.77;11.30;;;;;;;18.37;63.10;100289.00;4940900;28;114479;-73
2022/10/01 09:22:43;;;;;;;13.02;11.73;;;;;;;18.42;63.65;100297.50;4963161;28;115313;-73
2022/10/01 09:25:18;;;;;;;;;;;;;;;18.46;63.20;100293.56;4958301;28;124671;-73
2022/10/01 09:27:45;;;;;;;13.53;11.70;;;;;;;18.57;63.41;100305.16;4971318;28;124195;-73
2022/10/01 09:30:17;;;;;;;13.93;11.32;;;;;;;18.68;63.72;100297.03;4971987;28;113398;-73
2022/10/01 09:33:09;;;;;;;12.30;10.63;;;;;;;18.79;63.79;100304.13;4966795;28;113687;-72
2022/10/01 09:35:44;;;;;;;13.57;10.65;;;;;;;18.90;63.88;100301.38;4968366;28;123950;-73
2022/10/01 09:38:41;;;;;;;12.10;9.40;;;;;;;19.00;63.71;100314.84;4969207;28;124093;-73
2022/10/01 09:41:10;;;;;;;11.18;9.20;;;;;;;19.06;63.38;100311.59;4967459;28;114851;-73
2022/10/01 09:43:39;;;;;;;13.23;8.20;;;;;;;19.11;63.35;100309.34;4961877;28;114166;-73
2022/10/01 09:46:12;;;;;;;9.23;6.88;;;;;;;19.16;63.26;100320.53;4965949;28;123907;-74
2022/10/01 09:49:00;;;;;;;9.32;7.00;;;;;;;19.21;63.15;100310.25;4968153;28;123803;-74
2022/10/01 09:51:34;;;;;;;12.23;6.05;;;;;;;19.24;62.92;100315.31;4964393;28;114649;-74
2022/10/01 09:54:18;;;;;;;11.13;6.28;;;;;;;19.30;62.99;100318.44;4967611;28;114613;-74
2022/10/01 09:57:13;;;;;;;9.32;5.03;;;;;;;19.38;62.84;100318.59;4966515;28;124178;-74
2022/10/01 09:59:47;;;;;;;9.38;4.88;;;;;;;19.48;63.01;100322.16;4967637;28;124148;-73
2022/10/01 10:02:22;;;;;;;10.17;4.27;;;;;;;19.61;62.78;100325.41;4964959;28;114313;-74
2022/10/01 10:05:04;;;;;;;10.52;3.60;;;;;;;19.74;62.55;100327.00;4967666;28;114186;-74
2022/10/01 10:07:33;;;;;;;9.65;3.50;;;;;;;19.82;62.10;100329.84;4964345;28;124004;-73
2022/10/01 10:10:28;;;;;;;8.85;3.10;;;;;;;19.85;61.61;100329.53;4968341;28;123459;-74
2022/10/01 10:13:03;;;;;;;8.15;2.88;;;;;;;19.90;61.32;100335.34;4964238;28;115056;-74
2022/10/01 10:15:31;;;;;;;8.88;3.10;;;;;;;19.98;61.41;100335.47;4948422;28;114038;-74
2022/10/01 10:18:07;;;;;;;7.35;2.50;;;;;;;20.08;61.30;100340.00;4969072;28;123979;-74
2022/10/01 10:20:39;;;;;;;;;;;;;;;20.15;61.48;100335.75;4966959;28;124271;-74
2022/10/01 10:23:17;;;;;;;9.70;2.50;;;;;;;20.29;61.03;100338.00;4966574;28;114538;-74
2022/10/01 10:26:06;;;;;;;8.65;2.50;;;;;;;20.43;60.83;100340.22;4967855;28;114883;-73
2022/10/01 10:28:43;;;;;;;12.57;2.20;;;;;;;20.53;59.76;100350.97;4950758;28;124307;-75
2022/10/01 10:31:23;;;;;;;6.95;1.90;;;;;;;20.59;59.68;100352.22;4966940;28;123591;-73
2022/10/01 10:34:05;;;;;;;8.25;1.90;;;;;;;20.65;59.54;100354.34;4940081;28;112952;-73
2022/10/01 10:36:35;;;;;;;8.20;2.15;;;;;;;20.68;59.12;100363.97;4966559;28;114169;-74
2022/10/01 10:39:28;;;;;;;6.90;1.80;;;;;;;20.67;58.99;100368.50;4967848;28;123552;-74
2022/10/01 10:41:57;;;;;;;9.15;1.85;;;;;;;20.72;58.89;100377.00;4965276;28;123599;-74
2022/10/01 10:44:30;;;;;;;5.97;2.05;;;;;;;20.76;58.48;100383.78;4963882;28;113932;-74
2022/10/01 10:47:06;;;;;;;9.07;1.92;;;;;;;20.80;58.08;100379.81;4966251;28;114648;-75
2022/10/01 10:49:42;;;;;;;7.97;2.15;;;;;;;20.86;58.07;100377.53;4948516;28;124062;-74
2022/10/01 10:52:36;;;;;;;7.13;1.75;;;;;;;20.94;57.98;100391.09;4966434;28;123755;-72
2022/10/01 10:55:23;;;;;;;9.00;2.05;;;;;;;21.00;57.48;100390.47;4964180;28;114602;-73
2022/10/01 10:57:52;;;;;;;8.43;1.85;;;;;;;21.10;57.47;100396.69;4967893;28;115329;-74
2022/10/01 11:00:25;;;;;;;10.85;2.38;;;;;;;21.19;57.15;100401.19;4966664;28;124034;-73
2022/10/01 11:03:03;;;;;;;9.75;1.88;;;;;;;21.30;56.93;100397.44;4972265;28;123753;-74
2022/10/01 11:05:32;;;;;;;10.50;2.10;;;;;;;21.43;56.84;100396.25;4970205;28;115411;-73
2022/10/01 11:08:03;;;;;;;8.75;1.85;;;;;;;21.54;56.54;100399.59;4972817;28;115205;-73
2022/10/01 11:10:58;;;;;;;10.77;2.20;;;;;;;21.63;56.03;100394.31;4953470;28;123542;-73
2022/10/01 11:13:31;;;;;;;6.63;1.90;;;;;;;21.69;55.69;100401.78;4969536;28;123328;-73
2022/10/01 11:16:06;;;;;;;9.27;1.83;;;;;;;21.74;55.39;100411.13;4960024;28;114557;-74
2022/10/01 11:18:41;;;;;;;8.48;1.88;;;;;;;21.78;55.02;100412.50;4971734;28;115084;-73
2022/10/01 11:21:23;;;;;;;9.82;1.90;;;;;;;21.79;54.57;100421.44;4971554;28;124081;-74
2022/10/01 11:24:18;;;;;;;7.15;1.52;;;;;;;21.75;54.37;100417.34;4968845;28;124377;-73
2022/10/01 11:27:11;;;;;;;12.93;1.93;;;;;;;21.74;54.51;100426.44;4942971;28;114313;-73
2022/10/01 11:29:53;;;;;;;8.00;1.65;;;;;;;21.75;53.76;100423.56;4968466;28;113850;-73
2022/10/01 11:33:02;;;;;;;9.38;1.70;;;;;;;21.77;53.96;100428.81;4968738;28;123975;-74
2022/10/01 11:35:59;;;;;;;7.13;1.88;;;;;;;21.84;54.09;100440.69;4967627;28;122735;-75
2022/10/01 11:38:42;;;;;;;9.70;1.77;;;;;;;21.86;53.75;100444.09;4974733;28;115227;-75
2022/10/01 11:41:21;;;;;;;6.90;1.90;;;;;;;21.80;52.95;100455.50;4956588;28;113652;-73